createdAt,value
2023-02-11T00:00:22.220Z,103.50
2023-02-11T00:03:26.010Z,112.97
2023-02-11T00:06:31.851Z,92.63
2023-02-11T00:09:35.003Z,99.68
2023-02-11T00:12:38.748Z,96.88
2023-02-11T00:15:41.837Z,96.00
2023-02-11T00:18:45.915Z,92.72
2023-02-11T00:21:50.426Z,92.93
2023-02-11T00:24:54.861Z,81.78
2023-02-11T00:27:58.929Z,96.05
2023-02-11T00:31:02.644Z,100.97
2023-02-11T00:34:05.870Z,90.18
2023-02-11T00:37:12.016Z,82.70
2023-02-11T00:40:18.457Z,75.93
2023-02-11T00:43:21.749Z,92.50
2023-02-11T00:46:26.955Z,95.10
2023-02-11T00:49:30.123Z,83.03
2023-02-11T00:52:36.305Z,85.05
2023-02-11T00:55:39.461Z,79.78
2023-02-11T00:58:42.648Z,78.88
2023-02-11T01:01:46.811Z,86.45
2023-02-11T01:04:50.262Z,81.45
2023-02-11T01:07:54.766Z,77.97
2023-02-11T01:11:00.327Z,79.95
2023-02-11T01:14:04.158Z,80.32
2023-02-11T01:17:07.381Z,86.07
2023-02-11T01:20:16.856Z,71.82
2023-02-11T01:23:22.196Z,81.85
2023-02-11T01:26:25.586Z,73.65
2023-02-11T01:29:29.226Z,87.18
2023-02-11T01:32:33.082Z,79.90
2023-02-11T01:35:36.675Z,82.70
2023-02-11T01:38:41.937Z,72.78
2023-02-11T01:41:45.121Z,76.30
2023-02-11T01:44:51.528Z,84.07
2023-02-11T01:47:54.729Z,79.18
2023-02-11T01:51:02.755Z,72.35
2023-02-11T01:57:32.649Z,69.65
2023-02-11T02:00:38.226Z,77.13
2023-02-11T02:03:46.925Z,80.78
2023-02-11T02:06:54.485Z,72.07
2023-02-11T02:10:02.781Z,76.00
2023-02-11T02:13:06.062Z,72.13
2023-02-11T02:16:13.614Z,72.38
2023-02-11T02:19:47.051Z,76.57
2023-02-11T02:23:17.214Z,68.60
2023-02-11T02:26:47.859Z,75.40
2023-02-11T02:30:26.035Z,74.57
2023-02-11T02:33:43.128Z,76.72
2023-02-11T02:37:02.434Z,71.30
2023-02-11T02:40:10.963Z,76.25
2023-02-11T02:43:16.183Z,80.50
2023-02-11T02:46:22.074Z,72.55
2023-02-11T02:49:26.611Z,78.88
2023-02-11T02:52:37.810Z,76.00
2023-02-11T02:55:54.719Z,83.05
2023-02-11T02:59:11.646Z,76.97
2023-02-11T03:02:19.642Z,76.85
2023-02-11T03:08:35.590Z,80.75
2023-02-11T03:11:38.793Z,82.80
2023-02-11T03:14:42.639Z,78.50
2023-02-11T03:17:49.069Z,76.50
2023-02-11T03:20:55.891Z,76.00
2023-02-11T03:24:03.136Z,72.93
2023-02-11T03:27:13.818Z,63.27
2023-02-11T03:30:21.808Z,57.63
2023-02-11T03:33:30.150Z,69.43
2023-02-11T03:36:41.029Z,75.38
2023-02-11T03:39:48.733Z,72.32
2023-02-11T03:42:55.130Z,67.03
2023-02-11T03:46:00.650Z,66.93
2023-02-11T03:49:07.906Z,70.72
2023-02-11T03:52:13.834Z,63.50
2023-02-11T03:55:19.487Z,64.82
2023-02-11T03:58:22.684Z,65.40
2023-02-11T04:01:25.865Z,70.40
2023-02-11T04:04:29.166Z,58.72
2023-02-11T04:07:34.073Z,70.85
2023-02-11T04:10:37.269Z,65.00
2023-02-11T04:13:40.538Z,60.78
2023-02-11T04:16:43.749Z,64.97
2023-02-11T04:19:46.914Z,71.63
2023-02-11T04:22:51.483Z,54.67
2023-02-11T04:25:54.753Z,68.22
2023-02-11T04:28:57.912Z,61.58
2023-02-11T04:34:24.525Z,58.88
2023-02-11T04:37:27.752Z,63.88
2023-02-11T04:40:30.945Z,52.70
2023-02-11T04:43:34.413Z,63.25
2023-02-11T04:46:37.659Z,63.55
2023-02-11T04:49:42.875Z,60.70
2023-02-11T04:52:46.048Z,58.58
2023-02-11T04:55:50.645Z,50.35
2023-02-11T04:58:54.263Z,45.05
2023-02-11T05:01:57.349Z,49.03
2023-02-11T05:05:01.889Z,52.08
2023-02-11T05:08:05.637Z,44.10
2023-02-11T05:11:09.621Z,44.25
2023-02-11T05:14:12.802Z,43.75
2023-02-11T05:17:16.055Z,40.75
2023-02-11T05:20:21.622Z,49.20
2023-02-11T05:23:24.793Z,45.97
2023-02-11T05:26:28.043Z,45.97
2023-02-11T05:29:31.426Z,86.82
2023-02-11T05:32:35.057Z,67.68
2023-02-11T05:35:39.523Z,88.72
2023-02-11T05:38:43.350Z,59.20
2023-02-11T05:41:46.611Z,50.67
2023-02-11T05:44:50.758Z,50.38
2023-02-11T05:47:54.234Z,44.33
2023-02-11T05:50:59.029Z,39.47
2023-02-11T05:54:02.174Z,37.33
2023-02-11T05:57:05.545Z,38.25
2023-02-11T06:00:10.144Z,46.03
2023-02-11T06:03:16.562Z,48.72
2023-02-11T06:06:21.060Z,39.25
2023-02-11T06:09:24.248Z,42.35
2023-02-11T06:12:28.130Z,44.13
2023-02-11T06:15:32.550Z,44.38
2023-02-11T06:18:35.836Z,44.70
2023-02-11T06:21:44.166Z,37.88
2023-02-11T06:25:00.743Z,36.78
2023-02-11T06:28:05.122Z,36.70
2023-02-11T06:31:09.703Z,45.88
2023-02-11T06:34:12.958Z,44.80
2023-02-11T06:37:17.507Z,42.92
2023-02-11T06:40:20.756Z,43.75
2023-02-11T06:43:23.942Z,44.80
2023-02-11T06:46:27.147Z,68.88
2023-02-11T06:49:30.322Z,50.53
2023-02-11T06:52:35.444Z,51.72
2023-02-11T06:55:38.724Z,46.20
2023-02-11T06:58:42.042Z,47.67
2023-02-11T07:01:45.294Z,44.30
2023-02-11T07:04:48.637Z,41.90
2023-02-11T07:07:53.162Z,41.83
2023-02-11T07:10:56.365Z,35.00
2023-02-11T07:14:02.724Z,38.83
2023-02-11T07:17:05.948Z,42.90
2023-02-11T07:20:12.315Z,43.20
2023-02-11T07:23:16.783Z,45.90
2023-02-11T07:26:23.604Z,46.85
2023-02-11T07:29:27.155Z,46.33
2023-02-11T07:32:30.418Z,43.30
2023-02-11T07:35:33.996Z,43.90
2023-02-11T07:38:38.849Z,43.90
2023-02-11T07:41:42.821Z,49.25
2023-02-11T07:44:50.345Z,34.65
2023-02-11T07:50:56.889Z,32.03
2023-02-11T07:54:01.606Z,32.28
2023-02-11T07:57:06.077Z,35.90
2023-02-11T08:00:10.383Z,37.55
2023-02-11T08:03:16.157Z,30.05
2023-02-11T08:06:21.137Z,28.83
2023-02-11T08:09:25.699Z,29.30
2023-02-11T08:12:28.878Z,26.45
2023-02-11T08:15:32.060Z,23.50
2023-02-11T08:18:37.376Z,26.92
2023-02-11T08:21:41.283Z,30.10
2023-02-11T08:24:45.775Z,30.23
2023-02-11T08:27:48.943Z,24.70
2023-02-11T08:30:52.415Z,35.17
2023-02-11T08:33:58.253Z,32.53
2023-02-11T08:37:01.506Z,30.52
2023-02-11T08:40:07.127Z,34.58
2023-02-11T08:43:10.737Z,33.13
2023-02-11T08:46:16.369Z,27.88
2023-02-11T08:49:19.744Z,35.33
2023-02-11T08:52:25.013Z,31.65
2023-02-11T08:55:29.482Z,29.10
2023-02-11T08:58:33.144Z,25.27
2023-02-11T09:01:37.202Z,26.27
2023-02-11T09:04:40.861Z,27.42
2023-02-11T09:07:43.979Z,26.05
2023-02-11T09:10:48.848Z,25.80
2023-02-11T09:13:54.377Z,27.25
2023-02-11T09:16:58.552Z,28.25
2023-02-11T09:20:02.050Z,20.13
2023-02-11T09:23:05.267Z,26.35
2023-02-11T09:26:11.986Z,23.38
2023-02-11T09:29:15.153Z,28.02
2023-02-11T09:32:18.570Z,25.13
2023-02-11T09:35:21.819Z,22.48
2023-02-11T09:38:24.964Z,21.95
2023-02-11T09:42:07.750Z,22.75
2023-02-11T09:45:17.297Z,24.33
2023-02-11T09:48:23.365Z,23.05
2023-02-11T09:51:35.453Z,21.50
2023-02-11T09:54:46.706Z,24.77
2023-02-11T09:57:51.406Z,24.85
2023-02-11T10:01:04.013Z,23.60
2023-02-11T10:04:20.581Z,26.02
2023-02-11T10:07:29.403Z,23.33
2023-02-11T10:10:45.388Z,22.80
2023-02-11T10:13:59.653Z,27.33
2023-02-11T10:17:11.365Z,24.55
2023-02-11T10:20:24.712Z,22.92
2023-02-11T10:23:32.473Z,24.85
2023-02-11T10:26:37.767Z,25.48
2023-02-11T10:29:47.443Z,24.35
2023-02-11T10:34:22.392Z,27.05
2023-02-11T10:37:25.683Z,23.77
2023-02-11T10:40:31.595Z,23.80
2023-02-11T10:43:37.953Z,21.42
2023-02-11T10:46:41.218Z,26.60
2023-02-11T10:49:47.603Z,24.50
2023-02-11T10:52:50.905Z,23.27
2023-02-11T10:55:57.204Z,27.23
2023-02-11T10:59:03.093Z,24.15
2023-02-11T11:02:20.764Z,22.58
2023-02-11T11:05:30.749Z,21.83
2023-02-11T11:08:43.817Z,22.42
2023-02-11T11:11:53.636Z,28.23
2023-02-11T11:14:58.418Z,22.65
2023-02-11T11:18:22.109Z,24.10
2023-02-11T11:21:34.334Z,24.45
2023-02-11T11:24:46.621Z,23.70
2023-02-11T11:27:53.096Z,26.08
2023-02-11T11:30:58.737Z,25.10
2023-02-11T11:34:13.936Z,28.02
2023-02-11T11:37:24.668Z,22.65
2023-02-11T11:40:29.744Z,28.00
2023-02-11T11:43:33.030Z,27.30
2023-02-11T11:46:43.264Z,25.90
2023-02-11T11:49:52.070Z,24.92
2023-02-11T11:53:01.556Z,29.08
2023-02-11T11:56:10.175Z,31.67
2023-02-11T11:59:16.627Z,30.48
2023-02-11T12:02:38.832Z,27.92
2023-02-11T12:05:52.732Z,32.00
2023-02-11T12:09:04.727Z,25.58
2023-02-11T12:12:23.881Z,32.20
2023-02-11T12:15:35.803Z,27.10
2023-02-11T12:19:14.883Z,26.55
2023-02-11T12:22:30.796Z,27.98
2023-02-11T12:25:42.800Z,30.67
2023-02-11T12:29:02.487Z,25.52
2023-02-11T12:32:27.106Z,25.65
2023-02-11T12:35:42.423Z,25.98
2023-02-11T12:39:02.533Z,30.23
2023-02-11T12:42:59.790Z,28.42
2023-02-11T12:46:35.482Z,29.65
2023-02-11T12:50:03.772Z,27.98
2023-02-11T12:53:26.857Z,26.42
2023-02-11T12:56:37.970Z,32.78
2023-02-11T12:59:50.495Z,29.85
2023-02-11T13:03:00.913Z,27.00
2023-02-11T13:06:08.908Z,30.35
2023-02-11T13:09:21.046Z,24.40
2023-02-11T13:12:43.734Z,26.42
2023-02-11T13:15:52.601Z,26.52
2023-02-11T13:19:03.719Z,23.13
2023-02-11T13:22:14.481Z,25.30
2023-02-11T13:25:24.293Z,26.88
2023-02-11T13:28:40.131Z,22.58
2023-02-11T13:31:53.532Z,26.13
2023-02-11T13:34:59.386Z,25.00
2023-02-11T13:38:04.368Z,26.27
2023-02-11T13:41:17.835Z,24.23
2023-02-11T13:44:27.497Z,23.65
2023-02-11T13:47:35.743Z,25.65
2023-02-11T13:50:40.746Z,26.02
2023-02-11T13:53:48.158Z,24.77
2023-02-11T13:57:22.565Z,24.13
2023-02-11T14:00:50.695Z,28.52
2023-02-11T14:04:38.909Z,26.80
2023-02-11T14:08:31.590Z,27.30
2023-02-11T14:11:51.496Z,25.15
2023-02-11T14:15:33.362Z,31.17
2023-02-11T14:18:55.692Z,27.98
2023-02-11T14:22:04.780Z,25.90
2023-02-11T14:25:19.679Z,29.15
2023-02-11T14:28:32.599Z,26.52
2023-02-11T14:31:41.344Z,26.13
2023-02-11T14:34:52.636Z,28.45
2023-02-11T14:38:05.146Z,23.10
2023-02-11T14:41:12.777Z,27.08
2023-02-11T14:44:20.434Z,28.20
2023-02-11T14:50:34.627Z,25.73
2023-02-11T14:53:44.417Z,28.67
2023-02-11T14:56:47.977Z,29.90
2023-02-11T14:59:58.955Z,28.80
2023-02-11T15:03:02.294Z,36.95
2023-02-11T15:06:09.017Z,27.75
2023-02-11T15:09:19.957Z,31.98
2023-02-11T15:12:26.023Z,29.45
2023-02-11T15:15:32.950Z,27.33
2023-02-11T15:18:40.956Z,33.00
2023-02-11T15:21:47.163Z,26.60
2023-02-11T15:25:03.733Z,28.42
2023-02-11T15:28:16.492Z,32.00
2023-02-11T15:31:23.164Z,27.77
2023-02-11T15:34:26.849Z,28.65
2023-02-11T15:37:37.553Z,39.38
2023-02-11T15:40:52.351Z,29.13
2023-02-11T15:43:55.777Z,28.83
2023-02-11T15:46:59.550Z,32.15
2023-02-11T15:50:03.163Z,31.35
2023-02-11T15:53:22.864Z,28.85
2023-02-11T15:56:32.812Z,33.50
2023-02-11T15:59:39.423Z,32.92
2023-02-11T16:02:46.383Z,33.10
2023-02-11T16:05:49.641Z,29.98
2023-02-11T16:09:01.144Z,35.60
2023-02-11T16:12:26.957Z,36.30
2023-02-11T16:15:46.855Z,33.13
2023-02-11T16:19:04.210Z,34.67
2023-02-11T16:22:11.923Z,30.48
2023-02-11T16:25:20.387Z,31.02
2023-02-11T16:28:25.214Z,33.15
2023-02-11T16:34:24.474Z,33.28
2023-02-11T16:37:28.978Z,32.13
2023-02-11T16:40:32.056Z,42.35
2023-02-11T16:43:35.281Z,52.78
2023-02-11T16:46:39.183Z,53.28
2023-02-11T16:49:44.124Z,46.78
2023-02-11T16:52:47.664Z,48.97
2023-02-11T16:55:51.547Z,40.65
2023-02-11T16:58:54.731Z,36.22
2023-02-11T17:01:58.640Z,34.67
2023-02-11T17:05:06.263Z,33.42
2023-02-11T17:08:10.398Z,35.47
2023-02-11T17:11:16.631Z,35.15
2023-02-11T17:14:20.065Z,37.13
2023-02-11T17:17:24.089Z,36.60
2023-02-11T17:20:28.786Z,37.00
2023-02-11T17:23:31.937Z,44.67
2023-02-11T17:26:36.838Z,33.30
2023-02-11T17:29:40.111Z,42.42
2023-02-11T17:32:43.331Z,45.17
2023-02-11T17:35:50.861Z,52.42
2023-02-11T17:38:56.397Z,49.58
2023-02-11T17:41:59.579Z,50.40
2023-02-11T17:45:02.737Z,38.78
2023-02-11T17:48:06.098Z,38.35
2023-02-11T17:51:22.959Z,40.25
2023-02-11T17:54:26.183Z,39.17
2023-02-11T17:57:29.342Z,38.53
2023-02-11T18:00:33.281Z,38.83
2023-02-11T18:03:36.401Z,38.28
2023-02-11T18:06:40.986Z,42.92
2023-02-11T18:09:44.249Z,38.67
2023-02-11T18:12:47.511Z,36.40
2023-02-11T18:15:51.002Z,36.75
2023-02-11T18:18:54.852Z,39.30
2023-02-11T18:22:01.154Z,31.92
2023-02-11T18:25:06.808Z,39.37
2023-02-11T18:28:10.062Z,38.40
2023-02-11T18:31:14.019Z,46.83
2023-02-11T18:34:17.610Z,41.20
2023-02-11T18:37:22.117Z,36.58
2023-02-11T18:40:25.331Z,41.67
2023-02-11T18:43:31.507Z,43.08
2023-02-11T18:46:35.427Z,41.70
2023-02-11T18:49:38.864Z,34.13
2023-02-11T18:52:43.730Z,39.33
2023-02-11T18:55:47.549Z,38.22
2023-02-11T18:58:52.001Z,43.75
2023-02-11T19:01:55.240Z,44.45
2023-02-11T19:04:58.422Z,42.40
2023-02-11T19:08:03.316Z,37.40
2023-02-11T19:11:06.726Z,33.15
2023-02-11T19:14:10.407Z,43.08
2023-02-11T19:17:14.013Z,38.90
2023-02-11T19:20:17.641Z,39.95
2023-02-11T19:23:22.183Z,37.42
2023-02-11T19:26:25.897Z,42.40
2023-02-11T19:29:31.987Z,37.60
2023-02-11T19:32:35.503Z,37.17
2023-02-11T19:35:38.632Z,37.10
2023-02-11T19:38:44.352Z,49.47
2023-02-11T19:41:47.861Z,37.85
2023-02-11T19:44:51.131Z,41.90
2023-02-11T19:47:56.841Z,39.65
2023-02-11T19:51:00.020Z,42.47
2023-02-11T19:54:04.878Z,45.47
2023-02-11T19:57:08.355Z,41.85
2023-02-11T20:00:12.668Z,47.22
2023-02-11T20:03:16.013Z,44.35
2023-02-11T20:06:23.246Z,46.78
2023-02-11T20:09:28.972Z,46.37
2023-02-11T20:12:32.207Z,48.15
2023-02-11T20:15:35.567Z,44.70
2023-02-11T20:18:39.427Z,46.38
2023-02-11T20:21:44.921Z,43.38
2023-02-11T20:24:50.921Z,50.63
2023-02-11T20:27:58.490Z,52.28
2023-02-11T20:31:05.549Z,48.30
2023-02-11T20:34:08.841Z,42.13
2023-02-11T20:37:12.231Z,41.33
2023-02-11T20:40:17.665Z,41.75
2023-02-11T20:43:21.228Z,42.28
2023-02-11T20:46:26.827Z,44.08
2023-02-11T20:49:30.419Z,43.58
2023-02-11T20:52:34.298Z,43.60
2023-02-11T20:55:40.030Z,43.60
2023-02-11T20:58:43.644Z,53.97
2023-02-11T21:01:48.918Z,50.63
2023-02-11T21:04:52.273Z,56.33
2023-02-11T21:07:56.088Z,55.40
2023-02-11T21:11:02.006Z,57.72
2023-02-11T21:14:05.924Z,53.50
2023-02-11T21:17:09.123Z,53.83
2023-02-11T21:20:12.694Z,57.10
2023-02-11T21:23:15.962Z,55.50
2023-02-11T21:26:20.453Z,56.15
2023-02-11T21:29:23.710Z,61.92
2023-02-11T21:32:26.815Z,47.67
2023-02-11T21:35:32.699Z,54.33
2023-02-11T21:38:36.912Z,57.45
2023-02-11T21:41:41.639Z,49.58
2023-02-11T21:44:45.150Z,49.10
2023-02-11T21:47:48.347Z,55.13
2023-02-11T21:50:51.448Z,53.67
2023-02-11T21:53:55.716Z,44.70
2023-02-11T21:57:02.942Z,52.65
2023-02-11T22:00:08.569Z,56.60
2023-02-11T22:03:13.563Z,47.20
2023-02-11T22:06:21.217Z,54.38
2023-02-11T22:09:24.499Z,47.63
2023-02-11T22:12:29.443Z,51.97
2023-02-11T22:15:32.650Z,44.22
2023-02-11T22:18:36.153Z,50.42
2023-02-11T22:21:39.461Z,53.10
2023-02-11T22:24:42.790Z,49.05
2023-02-11T22:27:47.260Z,49.75
2023-02-11T22:34:21.849Z,57.90
2023-02-11T22:37:25.153Z,48.60
2023-02-11T22:40:28.476Z,56.72
2023-02-11T22:43:31.705Z,57.83
2023-02-11T22:46:35.448Z,57.90
2023-02-11T22:49:41.304Z,72.22
2023-02-11T22:52:44.476Z,66.75
2023-02-11T22:55:47.580Z,62.00
2023-02-11T22:58:51.151Z,59.60
2023-02-11T23:01:54.368Z,53.65
2023-02-11T23:04:59.347Z,59.78
2023-02-11T23:08:02.536Z,64.75
2023-02-11T23:11:08.086Z,61.90
2023-02-11T23:14:12.134Z,66.55
2023-02-11T23:17:15.380Z,48.88
2023-02-11T23:20:20.226Z,52.92
2023-02-11T23:23:23.417Z,56.72
2023-02-11T23:26:27.351Z,52.92
2023-02-11T23:29:30.778Z,51.42
2023-02-11T23:32:34.091Z,51.95
2023-02-11T23:35:38.974Z,53.30
2023-02-11T23:38:45.008Z,47.15
2023-02-11T23:41:48.133Z,49.72
2023-02-11T23:44:51.299Z,43.42
2023-02-11T23:47:54.900Z,51.78
2023-02-11T23:50:59.304Z,57.60
2023-02-11T23:54:03.164Z,52.90
2023-02-11T23:57:06.784Z,51.70
